Bei Facebook empfehlenBei Twitter postenGoogle plusPinterest

Das Wetter im Erzgebirge am 10.02.2015

Wetter und Klima am 10.02.2015 Holzhau im Erzgebirge (630m ü.NN)
Letzte gemessene Temperatur und Uhrzeit der Messung23:45:00 Uhr0.50 °C
Temperatur (Maximum / Höchstwert) und Uhrzeit der Messung12:30:00 Uhr1.50 °C
Temperatur (Minimum / Tiefstwert) und Uhrzeit der Messung23:45:000.50 °C
Errechneter Absolutwert der Temperaturschwankungen zwischen Tmin und Tmax des Tages1.00 K
Errechnete Tagesmitteltemperatur0.81042 °C
Gesamt - Niederschlag des Tages (in flüssiger Form)4.66 Liter / m²
Luftdruck (Maximum / Höchstwert) und Zeitpunkt der Messung22:15:00 Uhr1025.30 hPa
Luftdruck (Minimum / Tiefstwert) und Zeitpunkt der Messung02:00:00 Uhr1020.20 hPa
Errechneter Absolutwert der Luftdruckschwankungen des Tages5.10 hPa
Höchste gemessene Windgeschwindigkeit und Uhrzeit der Messung11:45:00 Uhr12.96 km/h
Errechnete Windhäufigkeit in Relation zu den Messwerten des Tages34.37500 %
Niedrigste Windkühle (Windchill) und Zeitpunkt der Messung20:00:00 Uhr-2.70 °C
Taupunkt (Maximum / Höchstwert) und Uhrzeit der Messung12:30:00 Uhr0.80 °C
Taupunkt (Minimum / Tiefstwert) und Uhrzeit der Messung23:45:00-0.40 °C
Anzahl der automatisch eingelesenen Messwerte 96

Detaillierte Wetter- und Klima- Messwerte für den 10.02.2015 in Holzhau im Erzgebirge (630m ü.NN)
ZeitTemperaturLuftdruckRel. LuftfeuchteWindWindrichtungWindchillTaupunktNiederschlag l/m²
23:45:000.50 °C1024.70 hPa94.00 %-0.40 °C4.66
23:30:000.50 °C1024.60 hPa94.00 %-0.40 °C4.66
23:15:000.50 °C1024.60 hPa94.00 %-0.40 °C4.66
23:00:000.50 °C1024.80 hPa94.00 %-0.40 °C4.66
22:45:000.50 °C1024.90 hPa94.00 %-0.40 °C4.66
22:30:000.50 °C1024.90 hPa94.00 %5.04 km/hW-1.00 °C-0.40 °C4.66
22:15:000.50 °C1025.30 hPa94.00 %-0.40 °C4.66
22:00:000.50 °C1024.90 hPa94.00 %-0.40 °C4.66
21:45:000.50 °C1025.00 hPa94.00 %-0.40 °C4.66
21:30:000.60 °C1025.10 hPa94.00 %3.96 km/hW0.60 °C-0.30 °C4.66
21:15:000.60 °C1024.90 hPa94.00 %-0.30 °C4.66
21:00:000.60 °C1024.90 hPa94.00 %-0.30 °C4.66
20:45:000.60 °C1024.90 hPa94.00 %-0.30 °C4.66
20:30:000.60 °C1024.90 hPa94.00 %-0.30 °C4.66
20:15:000.60 °C1024.80 hPa94.00 %-0.30 °C4.66
20:00:000.60 °C1024.90 hPa94.00 %10.44 km/hNNW-2.70 °C-0.30 °C4.66
19:45:000.60 °C1024.80 hPa94.00 %3.60 km/hWNW0.60 °C-0.30 °C4.66
19:30:000.70 °C1024.70 hPa94.00 %-0.20 °C4.66
19:15:000.70 °C1024.70 hPa94.00 %1.80 km/hNNW0.70 °C-0.20 °C4.66
19:00:000.70 °C1024.70 hPa94.00 %2.52 km/hWNW0.70 °C-0.20 °C4.66
18:45:000.70 °C1024.40 hPa94.00 %5.76 km/hWNW-1.10 °C-0.20 °C4.66
18:30:000.70 °C1024.30 hPa94.00 %5.40 km/hW-1.00 °C-0.20 °C4.66
18:15:000.70 °C1024.10 hPa94.00 %3.96 km/hWNW0.70 °C-0.20 °C4.66
18:00:000.70 °C1023.70 hPa94.00 %-0.20 °C4.66
17:45:000.70 °C1023.40 hPa94.00 %-0.20 °C4.66
17:30:000.80 °C1023.50 hPa94.00 %-0.10 °C4.66
17:15:000.80 °C1023.50 hPa94.00 %-0.10 °C4.66
17:00:000.80 °C1023.50 hPa94.00 %-0.10 °C4.66
16:45:000.90 °C1023.60 hPa94.00 %0.00 °C4.66
16:30:000.90 °C1023.70 hPa94.00 %5.40 km/hWNW-0.70 °C0.00 °C4.66
16:15:000.90 °C1023.60 hPa94.00 %7.92 km/hWNW-1.70 °C0.00 °C4.66
16:00:001.20 °C1023.40 hPa94.00 %0.30 °C4.66
15:45:001.30 °C1023.40 hPa94.00 %0.40 °C4.66
15:30:001.30 °C1023.30 hPa94.00 %0.40 °C4.66
15:15:001.30 °C1023.50 hPa94.00 %0.40 °C4.66
15:00:001.30 °C1023.50 hPa94.00 %0.40 °C4.66
14:45:001.30 °C1023.40 hPa94.00 %0.40 °C4.66
14:30:001.40 °C1023.60 hPa94.00 %6.12 km/hWNW-0.50 °C0.50 °C4.66
14:15:001.40 °C1023.30 hPa94.00 %7.56 km/hWNW-1.00 °C0.50 °C4.66
14:00:001.40 °C1023.40 hPa94.00 %0.50 °C4.66
13:45:001.40 °C1023.50 hPa94.00 %0.50 °C4.66
13:30:001.30 °C1023.40 hPa95.00 %0.60 °C4.66
13:15:001.30 °C1023.60 hPa95.00 %3.60 km/hWNW1.30 °C0.60 °C4.66
13:00:001.30 °C1023.50 hPa95.00 %0.60 °C4.66
12:45:001.40 °C1023.30 hPa95.00 %7.20 km/hWNW-0.80 °C0.70 °C4.66
12:30:001.50 °C1023.30 hPa95.00 %8.28 km/hW-1.10 °C0.80 °C4.14
12:15:001.40 °C1023.30 hPa95.00 %3.96 km/hWNW1.40 °C0.70 °C4.14
12:00:001.30 °C1023.50 hPa95.00 %4.32 km/hWNW1.30 °C0.60 °C4.14
11:45:001.30 °C1023.40 hPa95.00 %12.96 km/hWNW-2.40 °C0.60 °C4.14
11:30:001.30 °C1023.40 hPa95.00 %3.60 km/hWNW1.30 °C0.60 °C4.14
11:15:001.20 °C1023.40 hPa95.00 %0.50 °C4.14
11:00:001.10 °C1023.30 hPa95.00 %6.84 km/hW-1.10 °C0.40 °C3.63
10:45:001.10 °C1023.10 hPa95.00 %7.92 km/hNNW-1.40 °C0.40 °C3.63
10:30:001.10 °C1023.20 hPa95.00 %6.84 km/hNW-1.10 °C0.40 °C3.63
10:15:001.00 °C1023.30 hPa95.00 %6.12 km/hNW-0.90 °C0.30 °C3.63
10:00:000.90 °C1023.10 hPa95.00 %0.20 °C3.63
09:45:000.90 °C1022.70 hPa95.00 %0.20 °C3.63
09:30:000.90 °C1022.70 hPa95.00 %4.68 km/hW0.90 °C0.20 °C3.11
09:15:000.90 °C1022.60 hPa95.00 %0.20 °C3.11
09:00:000.80 °C1022.50 hPa95.00 %0.10 °C3.11
08:45:000.70 °C1022.50 hPa94.00 %-0.20 °C3.11
08:30:000.70 °C1022.30 hPa94.00 %-0.20 °C3.11
08:15:000.60 °C1022.40 hPa94.00 %-0.30 °C2.59
08:00:000.60 °C1022.40 hPa94.00 %-0.30 °C2.59
07:45:000.60 °C1022.10 hPa94.00 %-0.30 °C2.59
07:30:000.60 °C1021.80 hPa94.00 %5.04 km/hSSW-0.90 °C-0.30 °C2.59
07:15:000.60 °C1021.80 hPa94.00 %-0.30 °C2.59
07:00:000.60 °C1021.80 hPa94.00 %-0.30 °C2.59
06:45:000.60 °C1021.30 hPa94.00 %-0.30 °C2.59
06:30:000.60 °C1021.30 hPa94.00 %-0.30 °C2.07
06:15:000.60 °C1021.30 hPa94.00 %3.60 km/hWNW0.60 °C-0.30 °C2.07
06:00:000.60 °C1021.30 hPa94.00 %-0.30 °C2.07
05:45:000.60 °C1021.30 hPa94.00 %7.56 km/hW-1.90 °C-0.30 °C2.07
05:30:000.60 °C1021.20 hPa94.00 %2.88 km/hNW0.60 °C-0.30 °C2.07
05:15:000.60 °C1021.10 hPa94.00 %5.40 km/hWNW-1.10 °C-0.30 °C2.07
05:00:000.60 °C1020.90 hPa94.00 %-0.30 °C1.55
04:45:000.60 °C1020.70 hPa94.00 %5.40 km/hW-1.10 °C-0.30 °C1.55
04:30:000.60 °C1020.80 hPa94.00 %-0.30 °C1.55
04:15:000.60 °C1020.70 hPa94.00 %-0.30 °C1.55
04:00:000.60 °C1020.70 hPa94.00 %-0.30 °C1.55
03:45:000.60 °C1020.50 hPa94.00 %-0.30 °C1.55
03:30:000.70 °C1020.50 hPa94.00 %-0.20 °C1.04
03:15:000.70 °C1020.50 hPa94.00 %-0.20 °C1.04
03:00:000.70 °C1020.40 hPa94.00 %6.48 km/hNNW-1.40 °C-0.20 °C1.04
02:45:000.70 °C1020.30 hPa94.00 %-0.20 °C1.04
02:30:000.60 °C1020.30 hPa94.00 %-0.30 °C1.04
02:15:000.60 °C1020.30 hPa94.00 %-0.30 °C0.52
02:00:000.60 °C1020.20 hPa94.00 %-0.30 °C0.52
01:45:000.60 °C1020.30 hPa94.00 %-0.30 °C0.52
01:30:000.60 °C1020.30 hPa94.00 %-0.30 °C0.52
01:15:000.60 °C1020.30 hPa94.00 %-0.30 °C0.52
01:00:000.60 °C1020.30 hPa94.00 %-0.30 °C0.52
00:45:000.70 °C1020.40 hPa94.00 %-0.20 °C 
00:30:000.70 °C1020.30 hPa94.00 %-0.20 °C 
00:15:000.70 °C1020.20 hPa94.00 %3.60 km/hW0.70 °C-0.20 °C 
00:00:000.60 °C1020.30 hPa94.00 %-0.30 °C 

Permanenter Link zu dieser Seite: Wetter im Erzgebirge am 10.02.2015
Performance-Info: Die Erstellung der Seite / Statistik(en) / Tabelle(n) erforderte 5 Datenbankserver-Abfrage(n) und dauerte 101 Millisekunden. (Dieser Messwert ist von der Gesamt-Auslastung des Servers abhängig.)
Erzgebirge - Wetter | Erzgebirge - Wetter (Mobilgeräte) | Komplette Klimadatenbank